createdAt,value
2023-06-19T00:00:56.101Z,41.52
2023-06-19T00:01:56.202Z,41.50
2023-06-19T00:02:56.184Z,41.53
2023-06-19T00:03:56.232Z,41.52
2023-06-19T00:04:56.197Z,41.52
2023-06-19T00:05:56.210Z,41.54
2023-06-19T00:06:56.245Z,41.53
2023-06-19T00:07:56.334Z,41.52
2023-06-19T00:08:56.344Z,41.52
2023-06-19T00:09:56.348Z,41.55
2023-06-19T00:10:56.388Z,41.54
2023-06-19T00:11:56.425Z,41.58
2023-06-19T00:12:56.435Z,41.59
2023-06-19T00:13:56.447Z,41.60
2023-06-19T00:14:56.479Z,41.57
2023-06-19T00:15:56.656Z,41.59
2023-06-19T00:16:56.545Z,41.59
2023-06-19T00:17:56.600Z,41.60
2023-06-19T00:18:56.584Z,41.63
2023-06-19T00:19:56.618Z,41.58
2023-06-19T00:20:56.625Z,41.63
2023-06-19T00:21:56.677Z,41.59
2023-06-19T00:22:56.662Z,41.63
2023-06-19T00:23:56.730Z,41.60
2023-06-19T00:24:56.727Z,41.62
2023-06-19T00:25:56.726Z,41.62
2023-06-19T00:26:56.807Z,41.60
2023-06-19T00:27:56.827Z,41.61
2023-06-19T00:28:56.821Z,41.60
2023-06-19T00:29:56.827Z,41.63
2023-06-19T00:30:56.904Z,41.63
2023-06-19T00:31:56.880Z,41.63
2023-06-19T00:32:56.937Z,41.68
2023-06-19T00:33:56.960Z,41.72
2023-06-19T00:34:56.958Z,41.68
2023-06-19T00:35:57.031Z,41.74
2023-06-19T00:36:57.054Z,41.69
2023-06-19T00:37:57.061Z,41.68
2023-06-19T00:38:57.098Z,41.67
2023-06-19T00:39:57.122Z,41.71
2023-06-19T00:40:57.184Z,41.69
2023-06-19T00:41:57.175Z,41.65
2023-06-19T00:42:57.201Z,41.72
2023-06-19T00:43:57.229Z,41.68
2023-06-19T00:44:57.238Z,41.67
2023-06-19T00:45:57.356Z,41.66
2023-06-19T00:46:58.957Z,41.65
2023-06-19T00:47:57.366Z,41.70
2023-06-19T00:48:57.295Z,41.69
2023-06-19T00:49:57.278Z,41.68
2023-06-19T00:50:57.275Z,41.70
2023-06-19T00:51:57.278Z,41.67
2023-06-19T00:52:57.284Z,41.71
2023-06-19T00:53:57.290Z,41.71
2023-06-19T00:54:57.245Z,41.72
2023-06-19T00:55:57.276Z,41.69
2023-06-19T00:56:57.241Z,41.70
2023-06-19T00:57:57.230Z,41.74
2023-06-19T00:58:57.254Z,41.73
2023-06-19T00:59:57.233Z,41.70
2023-06-19T01:01:07.908Z,41.73
2023-06-19T01:01:58.285Z,41.78
2023-06-19T01:02:57.274Z,41.75
2023-06-19T01:03:57.327Z,41.77
2023-06-19T01:04:57.214Z,41.76
2023-06-19T01:05:57.187Z,41.75
2023-06-19T01:06:57.181Z,41.74
2023-06-19T01:07:57.171Z,41.72
2023-06-19T01:08:57.179Z,41.75
2023-06-19T01:09:57.148Z,41.74
2023-06-19T01:10:57.146Z,41.75
2023-06-19T01:11:57.179Z,41.73
2023-06-19T01:12:57.127Z,41.75
2023-06-19T01:13:57.133Z,41.75
2023-06-19T01:14:57.158Z,41.80
2023-06-19T01:15:57.132Z,41.79
2023-06-19T01:16:57.133Z,41.78
2023-06-19T01:17:57.107Z,41.80
2023-06-19T01:18:57.128Z,41.81
2023-06-19T01:19:57.106Z,41.82
2023-06-19T01:20:57.077Z,41.77
2023-06-19T01:21:57.105Z,41.79
2023-06-19T01:22:57.052Z,41.79
2023-06-19T01:23:57.349Z,41.82
2023-06-19T01:24:57.043Z,41.85
2023-06-19T01:25:57.065Z,41.81
2023-06-19T01:26:57.051Z,41.84
2023-06-19T01:27:57.043Z,41.83
2023-06-19T01:28:57.159Z,41.85
2023-06-19T01:29:57.018Z,41.89
2023-06-19T01:30:57.014Z,41.86
2023-06-19T01:31:57.032Z,41.87
2023-06-19T01:32:57.074Z,41.83
2023-06-19T01:33:56.988Z,41.84
2023-06-19T01:34:57.006Z,41.84
2023-06-19T01:35:56.977Z,41.85
2023-06-19T01:36:57.001Z,41.84
2023-06-19T01:37:56.979Z,41.84
2023-06-19T01:38:56.976Z,41.88
2023-06-19T01:39:56.939Z,41.83
2023-06-19T01:40:56.985Z,41.84
2023-06-19T01:41:56.937Z,41.85
2023-06-19T01:42:56.951Z,41.84
2023-06-19T01:43:56.953Z,41.87
2023-06-19T01:44:56.972Z,41.86
2023-06-19T01:45:57.007Z,41.88
2023-06-19T01:46:57.059Z,41.85
2023-06-19T01:47:57.043Z,41.88
2023-06-19T01:48:57.078Z,41.86
2023-06-19T01:49:57.074Z,41.85
2023-06-19T01:50:57.093Z,41.86
2023-06-19T01:51:57.120Z,41.90
2023-06-19T01:52:57.148Z,41.94
2023-06-19T01:53:57.173Z,41.91
2023-06-19T01:54:57.228Z,41.89
2023-06-19T01:55:57.239Z,41.89
2023-06-19T01:56:57.273Z,41.94
2023-06-19T01:57:57.282Z,41.90
2023-06-19T01:58:57.319Z,41.93
2023-06-19T01:59:57.318Z,41.93
2023-06-19T02:00:57.333Z,41.96
2023-06-19T02:01:57.363Z,41.90
2023-06-19T02:02:57.467Z,41.91
2023-06-19T02:03:57.483Z,41.93
2023-06-19T02:04:57.460Z,41.91
2023-06-19T02:05:57.464Z,41.95
2023-06-19T02:06:57.490Z,41.94
2023-06-19T02:07:57.502Z,41.93
2023-06-19T02:08:57.550Z,41.94
2023-06-19T02:09:57.551Z,41.95
2023-06-19T02:10:57.598Z,41.95
2023-06-19T02:11:57.625Z,41.94
2023-06-19T02:12:57.618Z,41.96
2023-06-19T02:13:57.644Z,42.00
2023-06-19T02:14:57.699Z,42.01
2023-06-19T02:15:57.764Z,42.01
2023-06-19T02:16:57.731Z,42.00
2023-06-19T02:17:57.815Z,41.98
2023-06-19T02:18:57.808Z,42.03
2023-06-19T02:19:57.828Z,42.08
2023-06-19T02:20:57.876Z,42.02
2023-06-19T02:21:57.896Z,42.01
2023-06-19T02:22:57.932Z,42.01
2023-06-19T02:23:57.941Z,42.03
2023-06-19T02:24:57.994Z,42.01
2023-06-19T02:25:57.960Z,42.00
2023-06-19T02:26:58.031Z,42.01
2023-06-19T02:27:58.036Z,42.00
2023-06-19T02:28:58.069Z,42.03
2023-06-19T02:29:58.085Z,42.03
2023-06-19T02:30:58.122Z,42.04
2023-06-19T02:31:58.160Z,42.02
2023-06-19T02:32:58.177Z,41.99
2023-06-19T02:33:58.184Z,42.01
2023-06-19T02:34:58.226Z,42.03
2023-06-19T02:35:58.220Z,42.07
2023-06-19T02:36:58.240Z,42.04
2023-06-19T02:37:58.271Z,42.06
2023-06-19T02:38:58.322Z,42.08
2023-06-19T02:39:58.310Z,42.06
2023-06-19T02:40:58.429Z,42.06
2023-06-19T02:41:58.407Z,42.10
2023-06-19T02:42:58.410Z,42.07
2023-06-19T02:43:58.449Z,42.07
2023-06-19T02:44:58.477Z,42.07
2023-06-19T02:45:58.576Z,42.07
2023-06-19T02:46:58.500Z,42.08
2023-06-19T02:47:58.593Z,42.07
2023-06-19T02:48:58.517Z,42.08
2023-06-19T02:49:58.527Z,42.16
2023-06-19T02:50:58.572Z,42.10
2023-06-19T02:51:58.566Z,42.11
2023-06-19T02:52:58.615Z,42.09
2023-06-19T02:53:58.621Z,42.12
2023-06-19T02:54:58.654Z,42.11
2023-06-19T02:55:58.706Z,42.12
2023-06-19T02:56:58.672Z,42.12
2023-06-19T02:57:58.676Z,42.10
2023-06-19T02:58:58.714Z,42.13
2023-06-19T02:59:58.723Z,42.11
2023-06-19T03:00:58.868Z,42.16
2023-06-19T03:01:58.777Z,42.15
2023-06-19T03:02:58.986Z,42.13
2023-06-19T03:03:58.813Z,42.15
2023-06-19T03:04:58.872Z,42.20
2023-06-19T03:05:58.911Z,42.18
2023-06-19T03:06:58.936Z,42.17
2023-06-19T03:07:58.970Z,42.17
2023-06-19T03:08:58.945Z,42.18
2023-06-19T03:09:58.984Z,42.20
2023-06-19T03:10:59.010Z,42.19
2023-06-19T03:11:59.008Z,42.19
2023-06-19T03:12:59.057Z,42.16
2023-06-19T03:13:59.064Z,42.20
2023-06-19T03:14:59.059Z,42.17
2023-06-19T03:15:59.108Z,42.22
2023-06-19T03:16:59.147Z,42.19
2023-06-19T03:17:59.187Z,42.22
2023-06-19T03:18:59.167Z,42.23
2023-06-19T03:19:59.173Z,42.24
2023-06-19T03:20:59.213Z,42.24
2023-06-19T03:21:59.220Z,42.23
2023-06-19T03:22:59.251Z,42.22
2023-06-19T03:23:59.286Z,42.22
2023-06-19T03:24:59.278Z,42.20
2023-06-19T03:25:59.329Z,42.21
2023-06-19T03:26:59.341Z,42.26
2023-06-19T03:27:59.350Z,42.25
2023-06-19T03:28:59.375Z,42.24
2023-06-19T03:29:59.435Z,42.24
2023-06-19T03:30:59.416Z,42.25
2023-06-19T03:31:59.462Z,42.25
2023-06-19T03:32:59.545Z,42.23
2023-06-19T03:33:59.490Z,42.23
2023-06-19T03:34:59.520Z,42.22
2023-06-19T03:35:59.522Z,42.24
2023-06-19T03:36:59.573Z,42.27
2023-06-19T03:37:59.577Z,42.25
2023-06-19T03:38:59.596Z,42.24
2023-06-19T03:39:59.620Z,42.25
2023-06-19T03:40:59.676Z,42.28
2023-06-19T03:41:59.673Z,42.29
2023-06-19T03:42:59.726Z,42.33
2023-06-19T03:43:59.729Z,42.28
2023-06-19T03:44:59.778Z,42.31
2023-06-19T03:45:59.790Z,42.47
2023-06-19T03:46:59.820Z,42.34
2023-06-19T03:47:59.848Z,42.31
2023-06-19T03:48:59.857Z,42.29
2023-06-19T03:50:59.879Z,42.29
2023-06-19T03:51:59.918Z,42.32
2023-06-19T03:52:59.912Z,42.32
2023-06-19T03:53:59.971Z,42.32
2023-06-19T03:54:59.965Z,42.35
2023-06-19T03:56:00.160Z,42.31
2023-06-19T03:57:00.034Z,42.39
2023-06-19T03:58:00.138Z,42.32
2023-06-19T03:59:00.063Z,42.35
2023-06-19T04:00:00.115Z,42.41
2023-06-19T04:01:00.139Z,42.34
2023-06-19T04:02:00.293Z,42.33
2023-06-19T04:03:00.306Z,42.33
2023-06-19T04:04:00.289Z,42.34
2023-06-19T04:05:00.226Z,42.32
2023-06-19T04:06:00.216Z,42.32
2023-06-19T04:07:00.314Z,42.34
2023-06-19T04:08:00.300Z,42.32
2023-06-19T04:09:00.315Z,42.34
2023-06-19T04:10:00.353Z,42.35
2023-06-19T04:11:00.349Z,42.35
2023-06-19T04:12:00.412Z,42.36
2023-06-19T04:13:00.420Z,42.36
2023-06-19T04:14:00.447Z,42.36
2023-06-19T04:15:00.499Z,42.35
2023-06-19T04:16:00.491Z,42.35
2023-06-19T04:17:00.492Z,42.36
2023-06-19T04:18:00.903Z,42.35
2023-06-19T04:19:00.876Z,42.36
2023-06-19T04:20:00.597Z,42.35
2023-06-19T04:21:00.520Z,42.38
2023-06-19T04:22:00.541Z,42.36
2023-06-19T04:23:00.587Z,42.38
2023-06-19T04:24:00.629Z,42.67
2023-06-19T04:25:00.602Z,42.84
2023-06-19T04:26:00.634Z,42.93
2023-06-19T04:27:00.668Z,43.17
2023-06-19T04:28:00.662Z,43.56
2023-06-19T04:29:00.720Z,44.77
2023-06-19T04:30:00.778Z,45.62
2023-06-19T04:31:00.803Z,47.04
2023-06-19T04:32:00.870Z,46.36
2023-06-19T04:33:01.002Z,47.25
2023-06-19T04:34:00.990Z,47.69
2023-06-19T04:35:01.027Z,47.44
2023-06-19T04:36:01.073Z,46.74
2023-06-19T04:37:01.185Z,46.42
2023-06-19T04:38:01.156Z,46.03
2023-06-19T04:39:01.237Z,45.98
2023-06-19T04:40:01.264Z,45.78
2023-06-19T04:41:01.318Z,45.66
2023-06-19T04:42:01.354Z,45.58
2023-06-19T04:43:01.381Z,45.51
2023-06-19T04:44:01.433Z,45.28
2023-06-19T04:45:01.504Z,45.24
2023-06-19T04:46:01.584Z,45.14
2023-06-19T04:47:01.566Z,45.05
2023-06-19T04:48:01.647Z,45.03
2023-06-19T04:49:01.677Z,44.93
2023-06-19T04:50:01.688Z,44.89
2023-06-19T04:51:01.739Z,44.83
2023-06-19T04:52:01.795Z,44.81
2023-06-19T04:53:01.803Z,44.77
2023-06-19T04:54:01.828Z,44.75
2023-06-19T04:55:01.885Z,44.73
2023-06-19T04:56:02.952Z,44.75
2023-06-19T04:57:01.980Z,44.70
2023-06-19T04:58:02.007Z,44.68
2023-06-19T04:59:02.057Z,44.67
2023-06-19T05:00:02.068Z,44.69
2023-06-19T05:01:02.110Z,44.65
2023-06-19T05:02:02.184Z,44.65
2023-06-19T05:03:02.206Z,44.68
2023-06-19T05:04:02.254Z,44.65
2023-06-19T05:05:02.309Z,44.64
2023-06-19T05:06:02.327Z,44.63
2023-06-19T05:07:02.373Z,44.62
2023-06-19T05:08:02.392Z,44.57
2023-06-19T05:09:02.456Z,44.59
2023-06-19T05:10:02.539Z,44.59
2023-06-19T05:11:02.549Z,44.60
2023-06-19T05:12:02.589Z,44.57
2023-06-19T05:13:02.633Z,44.60
2023-06-19T05:14:02.693Z,44.60
2023-06-19T05:15:02.734Z,44.55
2023-06-19T05:16:02.865Z,44.59
2023-06-19T05:17:02.841Z,44.60
2023-06-19T05:18:02.895Z,44.56
2023-06-19T05:19:02.889Z,44.59
2023-06-19T05:20:02.932Z,44.54
2023-06-19T05:21:03.000Z,44.60
2023-06-19T05:22:03.034Z,44.58
2023-06-19T05:23:03.081Z,44.66
2023-06-19T05:24:03.138Z,44.56
2023-06-19T05:25:03.154Z,44.58
2023-06-19T05:26:03.200Z,44.58
2023-06-19T05:27:03.278Z,44.57
2023-06-19T05:28:05.780Z,44.57
2023-06-19T05:29:03.256Z,44.59
2023-06-19T05:30:03.277Z,44.56
2023-06-19T05:31:03.285Z,44.56
2023-06-19T05:32:03.251Z,44.56
2023-06-19T05:33:03.279Z,44.55
2023-06-19T05:34:03.226Z,44.57
2023-06-19T05:35:03.244Z,44.57
2023-06-19T05:36:03.244Z,44.56
2023-06-19T05:37:03.254Z,44.53
2023-06-19T05:38:03.223Z,44.63
2023-06-19T05:39:03.220Z,44.81
2023-06-19T05:40:03.229Z,44.73
2023-06-19T05:41:03.217Z,44.78
2023-06-19T05:42:03.213Z,44.73
2023-06-19T05:43:03.177Z,44.84
2023-06-19T05:44:03.195Z,44.76
2023-06-19T05:45:03.150Z,44.70
2023-06-19T05:46:03.206Z,44.70
2023-06-19T05:47:03.137Z,45.08
2023-06-19T05:48:03.249Z,45.59
2023-06-19T05:49:03.155Z,45.35
2023-06-19T05:50:03.124Z,45.29
2023-06-19T05:51:03.138Z,45.82
2023-06-19T05:52:03.140Z,45.70
2023-06-19T05:53:03.100Z,45.76
2023-06-19T05:54:03.115Z,46.28
2023-06-19T05:55:03.111Z,46.06
2023-06-19T05:56:03.101Z,45.99
2023-06-19T05:57:03.129Z,46.01
2023-06-19T05:58:03.090Z,45.95
2023-06-19T05:59:03.058Z,46.30
2023-06-19T06:00:03.084Z,46.22
2023-06-19T06:01:03.113Z,46.29
2023-06-19T06:02:03.064Z,46.56
2023-06-19T06:03:03.079Z,46.75
2023-06-19T06:04:03.148Z,46.83
2023-06-19T06:05:03.074Z,46.71
2023-06-19T06:06:03.010Z,46.96
2023-06-19T06:07:03.012Z,47.10
2023-06-19T06:08:03.017Z,47.30
2023-06-19T06:09:02.996Z,47.66
2023-06-19T06:10:03.003Z,47.67
2023-06-19T06:11:02.969Z,47.80
2023-06-19T06:12:02.969Z,47.95
2023-06-19T06:13:02.959Z,48.23
2023-06-19T06:14:02.977Z,48.38
2023-06-19T06:15:03.009Z,48.45
2023-06-19T06:16:02.978Z,48.57
2023-06-19T06:17:03.032Z,48.76
2023-06-19T06:18:02.977Z,48.81
2023-06-19T06:19:02.935Z,48.92
2023-06-19T06:20:02.955Z,49.07
2023-06-19T06:21:02.913Z,49.14
2023-06-19T06:22:02.927Z,49.38
2023-06-19T06:23:02.923Z,49.42
2023-06-19T06:24:02.981Z,49.54
2023-06-19T06:25:02.899Z,49.66
2023-06-19T06:26:02.919Z,49.76
2023-06-19T06:27:02.896Z,49.76
2023-06-19T06:28:02.881Z,49.91
2023-06-19T06:29:02.870Z,49.99
2023-06-19T06:30:02.951Z,50.18
2023-06-19T06:31:02.949Z,50.11
2023-06-19T06:32:02.990Z,50.15
2023-06-19T06:33:03.096Z,50.26
2023-06-19T06:34:03.056Z,50.44
2023-06-19T06:35:03.115Z,50.37
2023-06-19T06:36:03.252Z,50.48
2023-06-19T06:37:06.530Z,50.58
2023-06-19T06:38:03.147Z,50.75
2023-06-19T06:39:03.166Z,50.95
2023-06-19T06:40:03.131Z,50.91
2023-06-19T06:41:03.162Z,50.92
2023-06-19T06:42:03.174Z,50.98
2023-06-19T06:43:03.153Z,51.01
2023-06-19T06:44:03.102Z,51.16
2023-06-19T06:45:03.116Z,51.27
2023-06-19T06:46:03.178Z,51.33
2023-06-19T06:47:03.079Z,51.42
2023-06-19T06:48:03.162Z,51.46
2023-06-19T06:49:03.092Z,51.46
2023-06-19T06:50:03.061Z,51.42
2023-06-19T06:51:03.081Z,51.64
2023-06-19T06:52:03.073Z,51.87
2023-06-19T06:53:03.162Z,51.86
2023-06-19T06:54:03.081Z,51.72
2023-06-19T06:55:03.045Z,51.41
2023-06-19T06:56:03.087Z,51.04
2023-06-19T06:57:03.076Z,51.22
2023-06-19T06:58:03.118Z,51.06
2023-06-19T06:59:03.025Z,50.62
2023-06-19T07:00:03.023Z,50.51
2023-06-19T07:01:03.028Z,50.53
2023-06-19T07:02:03.042Z,50.60
2023-06-19T07:03:03.135Z,50.80
2023-06-19T07:04:02.990Z,50.94
2023-06-19T07:05:02.970Z,51.01
2023-06-19T07:06:02.989Z,51.17
2023-06-19T07:07:02.959Z,51.23
2023-06-19T07:08:02.948Z,51.43
2023-06-19T07:09:02.931Z,51.58
2023-06-19T07:10:02.942Z,51.63
2023-06-19T07:11:02.951Z,51.76
2023-06-19T07:12:02.911Z,51.68
2023-06-19T07:13:02.925Z,51.92
2023-06-19T07:14:02.936Z,51.78
2023-06-19T07:15:02.925Z,51.88
2023-06-19T07:16:02.889Z,51.94
2023-06-19T07:17:03.963Z,52.11
2023-06-19T07:18:02.917Z,52.14
2023-06-19T07:19:02.888Z,52.40
2023-06-19T07:20:02.894Z,52.46
2023-06-19T07:21:02.856Z,52.67
2023-06-19T07:22:02.856Z,52.55
2023-06-19T07:23:02.904Z,51.44
2023-06-19T07:24:02.856Z,51.30
2023-06-19T07:25:02.826Z,51.61
2023-06-19T07:26:02.901Z,51.40
2023-06-19T07:27:02.812Z,50.68
2023-06-19T07:28:02.835Z,50.31
2023-06-19T07:29:02.818Z,50.56
2023-06-19T07:30:02.810Z,50.85
2023-06-19T07:31:02.826Z,50.72
2023-06-19T07:32:02.814Z,50.67
2023-06-19T07:33:02.805Z,50.43
2023-06-19T07:34:02.798Z,50.40
2023-06-19T07:35:02.845Z,49.59
2023-06-19T07:36:02.909Z,49.30
2023-06-19T07:37:02.938Z,49.17
2023-06-19T07:38:02.974Z,49.26
2023-06-19T07:39:02.974Z,49.20
2023-06-19T07:40:03.411Z,48.95
2023-06-19T07:41:03.061Z,49.06
2023-06-19T07:42:03.108Z,49.10
2023-06-19T07:43:03.161Z,48.81
2023-06-19T07:44:03.176Z,48.66
2023-06-19T07:45:03.235Z,48.41
2023-06-19T07:46:03.346Z,48.49
2023-06-19T07:47:03.361Z,48.41
2023-06-19T07:48:03.449Z,48.40
2023-06-19T07:49:03.410Z,48.31
2023-06-19T07:50:03.513Z,48.32
2023-06-19T07:51:03.547Z,48.47
2023-06-19T07:52:03.602Z,48.38
2023-06-19T07:53:03.652Z,48.56
2023-06-19T07:54:03.721Z,48.60
2023-06-19T07:55:03.730Z,48.52
2023-06-19T07:56:03.813Z,48.65
2023-06-19T07:57:03.819Z,48.75
2023-06-19T07:58:03.870Z,48.72
2023-06-19T07:59:06.098Z,48.86
2023-06-19T08:00:03.903Z,49.18
2023-06-19T08:01:03.905Z,49.79
2023-06-19T08:02:03.952Z,49.86
2023-06-19T08:03:05.016Z,50.00
2023-06-19T08:04:03.919Z,49.92
2023-06-19T08:05:03.995Z,50.22
2023-06-19T08:06:03.912Z,50.53
2023-06-19T08:07:03.930Z,51.26
2023-06-19T08:08:03.910Z,50.68
2023-06-19T08:09:03.898Z,50.58
2023-06-19T08:10:13.378Z,50.40
2023-06-19T08:11:05.149Z,50.64
2023-06-19T08:12:04.195Z,50.85
2023-06-19T08:13:04.222Z,50.62
2023-06-19T08:14:04.260Z,50.38
2023-06-19T08:15:04.312Z,50.36
2023-06-19T08:16:04.308Z,50.09
2023-06-19T08:17:04.361Z,49.98
2023-06-19T08:18:04.400Z,49.99
2023-06-19T08:19:04.352Z,50.03
2023-06-19T08:20:04.361Z,50.08
2023-06-19T08:21:04.365Z,50.05
2023-06-19T08:22:04.366Z,50.07
2023-06-19T08:23:06.554Z,50.15
2023-06-19T08:24:04.446Z,50.09
2023-06-19T08:25:04.456Z,50.08
2023-06-19T08:26:04.478Z,50.03
2023-06-19T08:27:04.475Z,50.00
2023-06-19T08:28:04.480Z,50.00
2023-06-19T08:29:04.515Z,49.94
2023-06-19T08:30:04.477Z,49.87
2023-06-19T08:31:04.494Z,49.77
2023-06-19T08:32:04.521Z,49.52
2023-06-19T08:33:04.715Z,49.36
2023-06-19T08:34:04.504Z,49.42
2023-06-19T08:35:04.558Z,49.53
2023-06-19T08:36:04.532Z,49.57
2023-06-19T08:37:04.557Z,49.53
2023-06-19T08:38:04.580Z,49.32
2023-06-19T08:39:04.571Z,49.34
2023-06-19T08:40:04.574Z,48.57
2023-06-19T08:41:04.625Z,49.09
2023-06-19T08:42:04.640Z,49.26
2023-06-19T08:43:04.619Z,49.25
2023-06-19T08:44:04.753Z,49.11
2023-06-19T08:45:04.695Z,49.04
2023-06-19T08:46:04.778Z,48.75
2023-06-19T08:47:04.859Z,48.26
2023-06-19T08:48:04.919Z,48.40
2023-06-19T08:49:04.843Z,48.21
2023-06-19T08:50:04.863Z,48.34
2023-06-19T08:51:04.858Z,48.30
2023-06-19T08:52:04.946Z,48.14
2023-06-19T08:53:04.932Z,48.50
2023-06-19T08:54:04.971Z,48.32
2023-06-19T08:55:04.960Z,48.63
2023-06-19T08:56:05.006Z,49.07
2023-06-19T08:57:05.139Z,49.21
2023-06-19T08:58:05.078Z,49.67
2023-06-19T08:59:05.105Z,49.76
2023-06-19T09:00:05.154Z,49.99
2023-06-19T09:01:05.213Z,50.07
2023-06-19T09:02:05.370Z,50.29
2023-06-19T09:03:13.467Z,50.44
2023-06-19T09:04:06.329Z,50.50
2023-06-19T09:05:05.295Z,50.63
2023-06-19T09:06:05.422Z,50.77
2023-06-19T09:07:05.572Z,50.93
2023-06-19T09:08:05.691Z,50.91
2023-06-19T09:09:05.285Z,50.97
2023-06-19T09:10:05.313Z,51.05
2023-06-19T09:11:05.273Z,51.06
2023-06-19T09:12:05.241Z,51.11
2023-06-19T09:13:05.280Z,51.18
2023-06-19T09:14:05.226Z,51.29
2023-06-19T09:15:05.265Z,51.25
2023-06-19T09:16:05.328Z,51.20
2023-06-19T09:17:05.345Z,51.38
2023-06-19T09:18:05.447Z,51.43
2023-06-19T09:19:05.410Z,51.48
2023-06-19T09:20:05.467Z,51.60
2023-06-19T09:21:05.486Z,51.65
2023-06-19T09:22:05.524Z,51.82
2023-06-19T09:23:05.562Z,51.83
2023-06-19T09:24:05.607Z,51.97
2023-06-19T09:25:05.603Z,52.01
2023-06-19T09:26:05.632Z,52.11
2023-06-19T09:27:05.639Z,52.24
2023-06-19T09:28:05.704Z,52.25
2023-06-19T09:29:05.817Z,52.32
2023-06-19T09:30:05.727Z,52.47
2023-06-19T09:31:05.808Z,52.50
2023-06-19T09:32:05.823Z,52.55
2023-06-19T09:33:06.223Z,52.64
2023-06-19T09:34:05.877Z,52.76
2023-06-19T09:35:05.829Z,52.85
2023-06-19T09:36:05.885Z,52.80
2023-06-19T09:37:05.896Z,52.92
2023-06-19T09:38:06.249Z,52.98
2023-06-19T09:39:05.933Z,53.12
2023-06-19T09:40:05.979Z,53.22
2023-06-19T09:41:05.993Z,53.12
2023-06-19T09:42:06.000Z,53.17
2023-06-19T09:43:06.273Z,53.15
2023-06-19T09:44:06.039Z,53.22
2023-06-19T09:45:06.029Z,53.30
2023-06-19T09:46:06.102Z,53.38
2023-06-19T09:47:06.119Z,53.37
2023-06-19T09:48:06.274Z,53.23
2023-06-19T09:49:06.170Z,53.07
2023-06-19T09:50:06.214Z,53.01
2023-06-19T09:51:06.225Z,52.28
2023-06-19T09:52:06.289Z,51.88
2023-06-19T09:53:06.303Z,51.88
2023-06-19T09:54:06.351Z,51.86
2023-06-19T09:55:06.354Z,49.11
2023-06-19T09:56:06.352Z,49.47
2023-06-19T09:57:06.394Z,50.72
2023-06-19T09:58:06.683Z,48.83
2023-06-19T09:59:06.476Z,49.83
2023-06-19T10:00:06.488Z,47.54
2023-06-19T10:01:06.506Z,46.62
2023-06-19T10:02:06.527Z,46.68
2023-06-19T10:03:06.657Z,46.69
2023-06-19T10:04:06.577Z,46.77
2023-06-19T10:05:06.525Z,44.21
2023-06-19T10:06:06.533Z,45.15
2023-06-19T10:07:06.534Z,44.22
2023-06-19T10:08:06.572Z,44.26
2023-06-19T10:09:06.587Z,44.18
2023-06-19T10:10:06.562Z,44.49
2023-06-19T10:11:06.605Z,44.74
2023-06-19T10:12:06.615Z,43.93
2023-06-19T10:13:06.664Z,43.79
2023-06-19T10:14:06.657Z,43.72
2023-06-19T10:15:06.661Z,43.46
2023-06-19T10:16:06.670Z,42.69
2023-06-19T10:17:06.682Z,42.76
2023-06-19T10:18:06.834Z,41.37
2023-06-19T10:19:06.793Z,42.04
2023-06-19T10:20:06.878Z,41.93
2023-06-19T10:21:06.872Z,42.01
2023-06-19T10:22:06.916Z,42.03
2023-06-19T10:23:06.991Z,41.73
2023-06-19T10:24:07.081Z,41.90
2023-06-19T10:25:07.070Z,41.87
2023-06-19T10:26:07.116Z,41.64
2023-06-19T10:27:07.153Z,41.96
2023-06-19T10:28:07.192Z,41.95
2023-06-19T10:29:07.267Z,41.59
2023-06-19T10:30:11.870Z,40.88
2023-06-19T10:31:08.299Z,41.11
2023-06-19T10:32:07.297Z,41.14
2023-06-19T10:33:07.289Z,41.11
2023-06-19T10:34:07.280Z,41.25
2023-06-19T10:35:07.255Z,41.37
2023-06-19T10:36:07.262Z,41.09
2023-06-19T10:37:07.244Z,40.97
2023-06-19T10:38:07.727Z,41.20
2023-06-19T10:39:07.257Z,41.41
2023-06-19T10:40:07.239Z,41.16
2023-06-19T10:41:07.270Z,40.96
2023-06-19T10:42:07.332Z,41.32
2023-06-19T10:43:07.396Z,41.16
2023-06-19T10:44:07.404Z,40.73
2023-06-19T10:45:07.525Z,40.88
2023-06-19T10:46:07.567Z,40.83
2023-06-19T10:47:07.542Z,40.98
2023-06-19T10:48:07.729Z,41.08
2023-06-19T10:49:07.588Z,41.18
2023-06-19T10:50:08.701Z,41.27
2023-06-19T10:51:07.599Z,41.41
2023-06-19T10:52:07.667Z,41.51
2023-06-19T10:53:07.589Z,41.67
2023-06-19T10:54:07.585Z,41.82
2023-06-19T10:55:07.564Z,41.96
2023-06-19T10:56:07.538Z,42.04
2023-06-19T10:57:07.569Z,42.18
2023-06-19T10:58:07.545Z,42.25
2023-06-19T10:59:07.539Z,42.34
2023-06-19T11:00:07.533Z,42.43
2023-06-19T11:01:07.532Z,42.60
2023-06-19T11:02:07.546Z,42.68
2023-06-19T11:03:07.631Z,42.74
2023-06-19T11:04:07.543Z,42.84
2023-06-19T11:05:07.501Z,42.90
2023-06-19T11:06:07.511Z,42.92
2023-06-19T11:07:07.525Z,43.04
2023-06-19T11:08:07.512Z,43.08
2023-06-19T11:09:07.511Z,43.13
2023-06-19T11:10:07.442Z,43.15
2023-06-19T11:11:07.439Z,43.22
2023-06-19T11:12:07.457Z,43.23
2023-06-19T11:13:07.455Z,43.28
2023-06-19T11:14:07.466Z,43.36
2023-06-19T11:15:07.446Z,43.39
2023-06-19T11:16:07.426Z,43.41
2023-06-19T11:17:07.432Z,43.44
2023-06-19T11:18:07.458Z,43.46
2023-06-19T11:19:07.409Z,43.52
2023-06-19T11:20:07.403Z,43.50
2023-06-19T11:21:07.358Z,43.53
2023-06-19T11:22:07.414Z,43.58
2023-06-19T11:23:07.377Z,43.57
2023-06-19T11:24:07.404Z,43.63
2023-06-19T11:25:07.347Z,43.63
2023-06-19T11:26:07.445Z,43.65
2023-06-19T11:27:07.348Z,43.68
2023-06-19T11:28:07.366Z,43.69
2023-06-19T11:30:07.333Z,43.76
2023-06-19T11:31:07.377Z,43.78
2023-06-19T11:32:07.319Z,43.80
2023-06-19T11:33:07.297Z,43.83
2023-06-19T11:34:07.316Z,43.82
2023-06-19T11:35:07.308Z,43.87
2023-06-19T11:36:07.320Z,43.87
2023-06-19T11:37:07.263Z,43.91
2023-06-19T11:38:07.293Z,43.94
2023-06-19T11:39:07.280Z,43.94
2023-06-19T11:40:07.352Z,43.94
2023-06-19T11:41:07.229Z,43.95
2023-06-19T11:42:07.323Z,43.98
2023-06-19T11:43:07.224Z,44.00
2023-06-19T11:44:07.291Z,43.97
2023-06-19T11:45:07.377Z,44.03
2023-06-19T11:46:07.392Z,44.05
2023-06-19T11:47:07.386Z,44.06
2023-06-19T11:48:07.765Z,44.09
2023-06-19T11:49:07.769Z,44.08
2023-06-19T11:50:07.526Z,44.11
2023-06-19T11:51:07.510Z,44.13
2023-06-19T11:52:07.602Z,44.16
2023-06-19T11:53:07.574Z,44.15
2023-06-19T11:54:07.624Z,44.18
2023-06-19T11:55:08.210Z,44.19
2023-06-19T11:56:07.657Z,44.19
2023-06-19T11:57:07.670Z,44.20
2023-06-19T11:58:07.664Z,44.26
2023-06-19T11:59:07.685Z,44.23
2023-06-19T12:00:07.723Z,44.28
2023-06-19T12:01:07.716Z,44.26
2023-06-19T12:02:07.795Z,44.28
2023-06-19T12:03:07.880Z,44.25
2023-06-19T12:04:08.010Z,44.22
2023-06-19T12:05:07.784Z,44.21
2023-06-19T12:06:07.791Z,44.22
2023-06-19T12:07:07.785Z,44.24
2023-06-19T12:08:07.824Z,44.25
2023-06-19T12:09:07.845Z,44.27
2023-06-19T12:10:07.823Z,44.32
2023-06-19T12:11:07.823Z,44.30
2023-06-19T12:12:07.857Z,44.27
2023-06-19T12:13:07.840Z,44.31
2023-06-19T12:14:07.857Z,44.31
2023-06-19T12:15:07.861Z,44.34
2023-06-19T12:16:07.884Z,44.34
2023-06-19T12:17:07.930Z,44.35
2023-06-19T12:18:07.930Z,44.38
2023-06-19T12:19:07.921Z,44.36
2023-06-19T12:20:07.879Z,44.41
2023-06-19T12:21:12.897Z,44.43
2023-06-19T12:22:08.885Z,44.42
2023-06-19T12:23:07.900Z,44.43
2023-06-19T12:24:07.947Z,44.41
2023-06-19T12:25:07.893Z,44.41
2023-06-19T12:26:07.855Z,44.37
2023-06-19T12:27:07.890Z,44.35
2023-06-19T12:28:08.292Z,44.36
2023-06-19T12:29:07.911Z,44.36
2023-06-19T12:30:07.851Z,44.35
2023-06-19T12:31:07.868Z,44.36
2023-06-19T12:32:07.852Z,44.34
2023-06-19T12:33:07.905Z,44.37
2023-06-19T12:34:17.023Z,44.40
2023-06-19T12:35:08.833Z,44.40
2023-06-19T12:36:07.832Z,44.42
2023-06-19T12:37:07.817Z,44.44
2023-06-19T12:38:07.828Z,44.43
2023-06-19T12:39:07.776Z,44.46
2023-06-19T12:40:07.757Z,44.45
2023-06-19T12:41:07.787Z,44.45
2023-06-19T12:42:07.769Z,44.48
2023-06-19T12:43:07.765Z,44.46
2023-06-19T12:44:07.744Z,44.48
2023-06-19T12:45:07.784Z,44.48
2023-06-19T12:46:07.782Z,44.48
2023-06-19T12:47:07.729Z,44.48
2023-06-19T12:48:07.819Z,44.49
2023-06-19T12:49:07.709Z,44.55
2023-06-19T12:50:07.699Z,44.51
2023-06-19T12:51:07.703Z,44.54
2023-06-19T12:52:07.677Z,44.58
2023-06-19T12:53:07.739Z,44.57
2023-06-19T12:54:07.698Z,44.59
2023-06-19T12:55:07.671Z,44.59